Time;durP1;ratioP1;P1;durP2;ratioP2;P2;SDS_P1;SDS_P2;PMS_P1;PMS_P2;Temp;Humidity;BMP_temperature;BMP_pressure;BME280_temperature;BME280_humidity;BME280_pressure;Samples;Min_cycle;Max_cycle;Signal;HPM_P1;HPM_P2
2022/06/03 00:02:21;;;;;;;15.38;6.90;;;;;;;22.40;86.84;100476.84;4952245;29;20352;-75
2022/06/03 00:04:53;;;;;;;12.48;6.28;;;;;;;22.41;85.97;100465.44;4952220;29;20477;-76
2022/06/03 00:07:21;;;;;;;12.57;6.47;;;;;;;22.30;85.90;100452.38;4951705;28;20047;-76
2022/06/03 00:10:12;;;;;;;15.65;6.68;;;;;;;22.49;84.67;100483.78;4951108;28;20051;-76
2022/06/03 00:12:52;;;;;;;11.90;6.40;;;;;;;22.20;84.63;100484.09;4939584;29;20039;-75
2022/06/03 00:15:42;;;;;;;12.27;6.40;;;;;;;22.13;84.58;100476.25;4951568;29;20523;-76
2022/06/03 00:18:26;;;;;;;13.35;6.68;;;;;;;22.13;84.04;100468.38;4941244;29;20078;-76
2022/06/03 00:21:11;;;;;;;11.30;6.25;;;;;;;21.93;84.06;100439.69;4992990;28;20061;-76
2022/06/03 00:23:58;;;;;;;13.18;6.47;;;;;;;21.98;84.43;100463.25;4996237;28;20130;-76
2022/06/03 00:26:42;;;;;;;15.82;6.65;;;;;;;21.63;85.44;100469.72;4993615;28;20030;-75
2022/06/03 00:29:41;;;;;;;13.82;6.50;;;;;;;21.47;86.56;100469.84;5009922;28;20026;-74
2022/06/03 00:32:15;;;;;;;15.05;6.72;;;;;;;21.65;84.89;100475.84;5009707;28;20022;-75
2022/06/03 00:34:44;;;;;;;15.63;6.88;;;;;;;21.73;84.49;100467.91;5009725;28;20068;-76
2022/06/03 00:37:29;;;;;;;12.73;5.97;;;;;;;21.66;84.73;100472.34;5009440;28;20040;-79
2022/06/03 00:40:21;;;;;;;14.57;6.28;;;;;;;21.55;85.31;100467.16;5009973;28;20034;-75
2022/06/03 00:42:55;;;;;;;12.07;6.60;;;;;;;21.60;85.80;100468.00;5009684;28;20022;-73
2022/06/03 00:45:50;;;;;;;13.35;6.18;;;;;;;21.57;84.92;100468.06;4998165;28;20455;-73
2022/06/03 00:48:30;;;;;;;13.57;6.70;;;;;;;21.45;85.83;100449.72;4919987;29;20071;-77
2022/06/03 00:51:02;;;;;;;14.60;6.45;;;;;;;21.49;85.72;100468.06;4931990;29;20039;-73
2022/06/03 00:53:50;;;;;;;11.32;6.10;;;;;;;21.33;86.55;100466.44;4932104;29;20051;-75
2022/06/03 00:56:34;;;;;;;13.75;6.57;;;;;;;21.48;85.96;100470.69;4931880;29;20039;-76
2022/06/03 00:59:19;;;;;;;12.35;7.00;;;;;;;21.56;87.35;100470.66;4931845;29;20043;-76
2022/06/03 01:02:06;;;;;;;14.15;7.10;;;;;;;21.51;86.23;100473.31;4948233;29;20051;-76
2022/06/03 01:04:38;;;;;;;18.00;7.70;;;;;;;21.55;86.90;100475.03;4931681;29;20078;-76
2022/06/03 01:07:32;;;;;;;12.23;7.30;;;;;;;21.43;88.89;100481.25;4931991;29;20044;-76
2022/06/03 01:10:30;;;;;;;11.23;7.35;;;;;;;21.37;89.81;100473.44;4931691;29;20042;-73
2022/06/03 01:13:34;;;;;;;9.98;6.57;;;;;;;21.28;89.89;100461.25;4915749;29;20164;-75
2022/06/03 01:16:23;;;;;;;13.60;7.45;;;;;;;21.26;88.21;100454.22;4931863;29;20032;-79
2022/06/03 01:18:49;;;;;;;;;;;;;;;21.17;87.97;100453.44;4931694;29;20051;-76
2022/06/03 01:21:36;;;;;;;9.68;6.38;;;;;;;21.07;88.20;100459.63;4931345;29;19915;-75
2022/06/03 01:24:36;;;;;;;14.30;6.40;;;;;;;21.08;89.22;100463.13;4931666;29;20517;-76
2022/06/03 01:27:02;;;;;;;15.55;7.28;;;;;;;21.03;88.41;100460.53;4944585;28;20134;-75
2022/06/03 01:29:55;;;;;;;15.05;7.15;;;;;;;20.95;89.63;100468.44;4950638;28;20869;-76
2022/06/03 01:32:48;;;;;;;10.05;6.68;;;;;;;20.95;88.96;100472.84;4953214;28;20437;-75
2022/06/03 01:35:44;;;;;;;12.27;7.13;;;;;;;20.88;88.65;100464.09;4988764;28;20057;-75
2022/06/03 01:38:32;;;;;;;12.38;7.38;;;;;;;20.72;89.06;100459.84;4989187;28;20437;-73
2022/06/03 01:41:43;;;;;;;11.77;6.97;;;;;;;20.59;90.74;100444.13;4989357;28;20062;-75
2022/06/03 01:44:27;;;;;;;10.60;7.63;;;;;;;20.62;90.49;100457.25;4931106;29;20075;-76
2022/06/03 01:47:26;;;;;;;11.05;7.00;;;;;;;19.94;91.41;100344.78;4930978;29;20114;-76
2022/06/03 01:50:03;;;;;;;9.55;7.13;;;;;;;20.15;94.29;100445.16;4930887;29;20046;-74
2022/06/03 01:52:52;;;;;;;11.93;7.35;;;;;;;19.83;96.15;100436.50;4930817;29;20141;-75
2022/06/03 01:55:31;;;;;;;10.70;6.65;;;;;;;19.79;96.04;100439.09;4930875;29;20043;-76
2022/06/03 01:58:02;;;;;;;9.95;6.93;;;;;;;19.88;95.90;100453.06;4939592;29;20075;-73
2022/06/03 02:00:33;;;;;;;12.45;6.63;;;;;;;19.99;95.17;100465.31;4949973;29;20054;-76
2022/06/03 02:03:32;;;;;;;13.63;7.45;;;;;;;20.05;94.80;100460.06;4933488;29;20024;-76
2022/06/03 02:06:13;;;;;;;14.35;6.78;;;;;;;20.07;92.42;100463.53;4940649;29;20051;-76
2022/06/03 02:08:51;;;;;;;10.85;7.22;;;;;;;20.09;91.56;100461.78;4949450;29;20862;-74
2022/06/03 02:11:37;;;;;;;12.85;6.88;;;;;;;20.18;91.34;100469.59;4949906;29;20050;-75
2022/06/03 02:14:29;;;;;;;13.63;7.20;;;;;;;20.09;90.67;100474.88;4949621;29;20525;-79
2022/06/03 02:17:23;;;;;;;12.27;6.13;;;;;;;20.05;90.69;100465.28;4949122;29;20035;-76
2022/06/03 02:20:00;;;;;;;10.68;6.60;;;;;;;20.20;89.69;100467.88;4962019;28;20519;-76
2022/06/03 02:23:23;;;;;;;9.63;6.50;;;;;;;20.19;88.51;100471.34;4990692;28;20049;-76
2022/06/03 02:26:26;;;;;;;11.35;6.45;;;;;;;20.11;89.81;100478.38;4968939;28;20117;-73
2022/06/03 02:32:06;;;;;;;17.35;6.60;;;;;;;20.28;87.68;100478.31;4969057;28;20073;-77
2022/06/03 02:34:34;;;;;;;16.85;5.57;;;;;;;20.36;85.15;100483.53;4972354;28;20089;-75
2022/06/03 02:36:59;;;;;;;12.50;6.30;;;;;;;20.35;86.21;100477.44;4973028;28;20038;-74
2022/06/03 02:39:43;;;;;;;11.27;6.55;;;;;;;20.35;86.60;100477.44;4972919;28;20141;-76
2022/06/03 02:42:33;;;;;;;13.20;6.32;;;;;;;20.35;86.67;100487.91;4972497;28;20541;-75
2022/06/03 02:45:17;;;;;;;20.50;6.95;;;;;;;20.06;88.43;100490.59;4972734;28;20061;-72
2022/06/03 02:48:01;;;;;;;17.42;6.38;;;;;;;19.93;89.62;100488.91;4972598;28;20066;-74
2022/06/03 02:50:39;;;;;;;13.80;5.88;;;;;;;19.97;89.60;100478.38;4972301;28;20051;-75
2022/06/03 02:53:29;;;;;;;12.00;6.30;;;;;;;20.05;89.29;100491.50;4972271;28;20034;-75
2022/06/03 02:56:17;;;;;;;13.88;6.00;;;;;;;20.17;86.67;100493.22;4977161;28;20352;-76
2022/06/03 02:59:31;;;;;;;13.90;5.68;;;;;;;20.20;86.16;100506.31;4993933;28;20081;-76
2022/06/03 03:02:02;;;;;;;11.30;5.68;;;;;;;20.35;84.87;100510.66;4991661;28;20065;-73
2022/06/03 03:04:40;;;;;;;14.30;6.25;;;;;;;20.40;84.70;100511.50;4992917;28;20390;-75
2022/06/03 03:07:23;;;;;;;11.73;5.93;;;;;;;20.40;85.25;100521.09;4999951;28;20523;-76
2022/06/03 03:09:57;;;;;;;13.52;6.03;;;;;;;20.23;85.29;100529.91;4991623;28;20038;-74
2022/06/03 03:12:43;;;;;;;12.15;5.75;;;;;;;20.21;85.77;100542.13;4991640;28;20050;-75
2022/06/03 03:15:32;;;;;;;12.93;6.15;;;;;;;20.10;85.94;100544.78;4952552;29;20147;-74
2022/06/03 03:18:22;;;;;;;12.05;6.72;;;;;;;19.97;86.61;100545.66;4952620;29;20055;-75
2022/06/03 03:20:48;;;;;;;13.93;7.30;;;;;;;20.00;87.45;100546.53;4952575;29;20047;-73
2022/06/03 03:23:44;;;;;;;11.27;6.82;;;;;;;20.05;88.38;100551.78;4952716;29;20045;-75
2022/06/03 03:26:22;;;;;;;11.48;5.93;;;;;;;19.70;90.21;100532.53;4952703;28;20152;-74
2022/06/03 03:29:06;;;;;;;11.35;6.43;;;;;;;19.51;90.68;100509.81;4952923;28;20038;-75
2022/06/03 03:31:37;;;;;;;9.05;6.70;;;;;;;19.83;91.65;100556.16;4952655;29;20035;-75
2022/06/03 03:34:25;;;;;;;11.98;7.20;;;;;;;19.79;92.77;100563.09;4952153;29;20160;-74
2022/06/03 03:37:12;;;;;;;10.60;7.68;;;;;;;19.80;92.85;100550.84;4952771;29;20121;-75
2022/06/03 03:39:50;;;;;;;8.70;7.32;;;;;;;19.78;93.46;100557.88;4971773;28;20747;-76
2022/06/03 03:42:24;;;;;;;11.18;7.18;;;;;;;19.77;93.43;100561.34;4971531;28;20034;-76
2022/06/03 03:45:11;;;;;;;11.73;6.75;;;;;;;19.74;93.85;100556.97;4971588;28;20142;-76
2022/06/03 03:48:09;;;;;;;10.77;7.00;;;;;;;19.46;93.61;100525.50;4971720;28;20034;-77
2022/06/03 03:51:03;;;;;;;11.70;6.45;;;;;;;19.63;94.20;100574.44;4971587;28;20046;-74
2022/06/03 03:53:48;;;;;;;11.60;7.57;;;;;;;19.20;94.86;100515.00;4985051;28;20093;-76
2022/06/03 03:56:35;;;;;;;15.00;8.23;;;;;;;19.52;95.76;100564.78;4990538;28;20038;-77
2022/06/03 03:59:54;;;;;;;12.50;7.18;;;;;;;19.57;95.28;100564.81;4992960;28;20393;-78
2022/06/03 04:02:47;;;;;;;13.43;7.53;;;;;;;19.59;95.91;100556.94;4990844;28;20478;-74
2022/06/03 04:05:38;;;;;;;12.77;7.68;;;;;;;19.67;96.00;100560.47;4990402;28;20054;-74
2022/06/03 04:08:56;;;;;;;14.00;8.07;;;;;;;19.52;96.01;100517.66;4990592;28;20039;-74
2022/06/03 04:11:40;;;;;;;16.27;7.95;;;;;;;19.73;96.38;100568.34;4990366;28;20121;-76
2022/06/03 04:14:12;;;;;;;13.60;8.88;;;;;;;19.77;96.56;100559.59;4990628;28;20229;-75
2022/06/03 04:17:00;;;;;;;14.45;8.43;;;;;;;19.74;96.87;100556.97;4990410;28;20476;-74
2022/06/03 04:20:03;;;;;;;13.13;8.90;;;;;;;19.76;97.45;100563.06;4990495;28;20137;-74
2022/06/03 04:22:55;;;;;;;14.57;9.52;;;;;;;19.67;98.95;100566.56;4990151;28;20030;-76
2022/06/03 04:25:51;;;;;;;14.32;9.77;;;;;;;19.66;100.00;100564.81;4990161;28;20513;-74
2022/06/03 04:28:50;;;;;;;14.90;10.02;;;;;;;19.66;100.00;100559.56;4990051;28;20080;-76
2022/06/03 04:31:34;;;;;;;13.38;9.05;;;;;;;19.77;100.00;100561.34;4990284;28;20034;-74
2022/06/03 04:34:13;;;;;;;12.50;9.07;;;;;;;19.85;100.00;100568.38;4989844;28;20364;-76
2022/06/03 04:36:56;;;;;;;16.17;8.77;;;;;;;20.02;99.90;100562.25;4989801;28;20398;-73
2022/06/03 04:39:39;;;;;;;11.88;8.88;;;;;;;20.12;99.87;100571.84;4992296;28;20061;-77
2022/06/03 04:42:08;;;;;;;11.30;8.95;;;;;;;20.22;99.67;100571.84;4992345;28;20062;-77
2022/06/03 04:44:52;;;;;;;13.45;9.98;;;;;;;20.22;99.77;100569.22;4992315;28;20460;-76
2022/06/03 04:47:37;;;;;;;14.50;9.27;;;;;;;20.23;100.00;100566.59;4992622;28;20420;-76
2022/06/03 04:50:06;;;;;;;11.43;8.15;;;;;;;20.33;97.92;100564.84;4992067;28;20049;-76
2022/06/03 04:53:08;;;;;;;18.67;9.43;;;;;;;20.31;99.41;100566.56;4992538;28;20396;-76
2022/06/03 04:55:46;;;;;;;12.68;8.48;;;;;;;20.38;99.28;100570.94;4991650;28;20030;-76
2022/06/03 04:58:32;;;;;;;13.07;8.63;;;;;;;20.43;98.44;100574.41;4990630;28;20424;-79
2022/06/03 05:01:32;;;;;;;13.13;8.32;;;;;;;20.38;98.97;100573.56;4991980;28;20489;-75
2022/06/03 05:04:09;;;;;;;;;;;;;;;20.39;100.00;100577.94;4992662;28;20029;-74
2022/06/03 05:07:13;;;;;;;13.02;8.40;;;;;;;20.35;100.00;100557.84;4992293;28;20372;-73
2022/06/03 05:09:51;;;;;;;12.73;8.27;;;;;;;20.44;99.04;100570.06;4990484;28;20035;-78
2022/06/03 05:12:42;;;;;;;12.68;7.97;;;;;;;20.56;100.00;100570.03;4991812;28;20426;-77
2022/06/03 05:15:26;;;;;;;13.55;8.20;;;;;;;20.66;98.04;100571.75;4989157;28;20038;-78
2022/06/03 05:18:01;;;;;;;10.85;8.40;;;;;;;20.77;98.01;100574.38;4989210;28;20055;-74
2022/06/03 05:21:12;;;;;;;10.07;8.18;;;;;;;20.80;98.15;100579.59;4988891;28;20189;-77
2022/06/03 05:23:48;;;;;;;12.32;8.38;;;;;;;20.90;98.66;100576.94;4989163;28;20034;-77
2022/06/03 05:26:40;;;;;;;11.60;8.45;;;;;;;20.95;97.95;100567.31;4989078;28;20038;-77
2022/06/03 05:29:48;;;;;;;10.93;8.48;;;;;;;21.08;97.59;100589.97;4988919;28;20401;-75
2022/06/03 05:32:31;;;;;;;12.27;8.52;;;;;;;21.21;97.01;100582.03;4988850;28;20034;-75
2022/06/03 05:35:15;;;;;;;13.05;7.85;;;;;;;21.29;97.06;100582.88;4988346;28;20046;-72
2022/06/03 05:38:04;;;;;;;11.40;8.52;;;;;;;21.30;97.07;100584.63;4988916;28;20037;-76
2022/06/03 05:40:45;;;;;;;12.45;8.13;;;;;;;21.38;97.65;100568.84;4988848;28;20034;-73
2022/06/03 05:43:35;;;;;;;13.75;8.95;;;;;;;21.67;95.51;100580.94;4988698;28;20034;-74
2022/06/03 05:46:05;;;;;;;11.70;7.97;;;;;;;21.67;96.71;100581.81;4986420;28;20042;-72
2022/06/03 05:49:07;;;;;;;10.85;8.00;;;;;;;21.75;96.45;100582.63;4987556;28;20081;-75
2022/06/03 05:51:44;;;;;;;14.60;8.82;;;;;;;21.85;95.21;100582.56;4989124;28;20089;-76
2022/06/03 05:54:46;;;;;;;12.80;8.50;;;;;;;21.99;94.63;100578.03;4991196;28;20542;-73
2022/06/03 05:57:25;;;;;;;13.15;8.48;;;;;;;21.88;94.37;100546.63;4991039;28;20563;-75
2022/06/03 05:59:54;;;;;;;;;;;;;;;22.18;94.48;100581.41;4991223;28;20161;-75
2022/06/03 06:02:22;;;;;;;12.15;8.00;;;;;;;22.29;94.02;100576.03;4991137;28;20304;-78
2022/06/03 06:04:59;;;;;;;12.43;7.90;;;;;;;22.43;93.70;100573.28;4991241;28;20030;-75
2022/06/03 06:07:30;;;;;;;13.32;8.98;;;;;;;22.41;93.00;100548.78;4990076;28;20026;-75
2022/06/03 06:10:09;;;;;;;9.55;7.53;;;;;;;22.66;92.46;100567.78;4991084;28;20045;-74
2022/06/03 06:13:07;;;;;;;10.85;7.60;;;;;;;22.80;91.94;100586.03;4990753;28;20066;-75
2022/06/03 06:15:51;;;;;;;13.38;7.88;;;;;;;22.98;92.43;100589.31;4988113;28;20057;-75
2022/06/03 06:18:44;;;;;;;11.45;8.00;;;;;;;23.14;91.85;100590.00;4988332;28;20051;-75
2022/06/03 06:21:28;;;;;;;11.60;7.90;;;;;;;23.19;91.74;100591.75;4985936;28;20548;-76
2022/06/03 06:24:07;;;;;;;10.13;7.68;;;;;;;23.26;91.42;100592.50;4988105;28;20097;-81
2022/06/03 06:26:45;;;;;;;11.38;7.70;;;;;;;23.19;90.61;100572.41;4987092;28;20038;-77
2022/06/03 06:29:59;;;;;;;8.73;7.30;;;;;;;23.34;90.05;100609.09;4988676;28;20066;-78
2022/06/03 06:32:39;;;;;;;12.63;7.78;;;;;;;23.46;90.47;100608.03;4949714;29;20047;-76
2022/06/03 06:35:23;;;;;;;8.60;6.88;;;;;;;23.56;88.60;100600.88;4949805;29;20039;-77
2022/06/03 06:37:56;;;;;;;11.73;7.32;;;;;;;23.71;89.12;100602.41;4950084;29;20150;-77
2022/06/03 06:41:06;;;;;;;11.98;7.22;;;;;;;23.87;88.05;100603.91;4949953;29;20035;-77
2022/06/03 06:43:31;;;;;;;9.75;7.47;;;;;;;24.01;87.53;100600.19;4930532;29;20043;-77
2022/06/03 06:46:03;;;;;;;10.98;7.53;;;;;;;24.22;85.64;100602.50;4930542;29;20039;-77
2022/06/03 06:48:54;;;;;;;10.73;8.18;;;;;;;24.21;86.21;100600.75;4930495;29;20511;-77
2022/06/03 06:51:51;;;;;;;14.25;7.93;;;;;;;24.23;87.79;100592.81;4930841;29;20467;-77
2022/06/03 06:54:47;;;;;;;14.85;7.65;;;;;;;24.28;87.05;100569.84;4911215;29;20044;-77
2022/06/03 06:57:24;;;;;;;10.43;7.63;;;;;;;24.50;85.66;100575.59;4911631;29;20044;-77
2022/06/03 07:00:02;;;;;;;11.02;7.55;;;;;;;24.77;86.16;100585.66;4911659;29;20047;-77
2022/06/03 07:02:39;;;;;;;12.73;7.45;;;;;;;24.84;86.14;100585.50;4911337;29;20051;-77
2022/06/03 07:05:07;;;;;;;12.35;8.88;;;;;;;24.93;86.82;100586.22;4911501;29;20048;-77
2022/06/03 07:07:52;;;;;;;15.10;9.27;;;;;;;25.06;82.58;100589.47;4911411;29;20051;-77
2022/06/03 07:10:22;;;;;;;11.60;9.00;;;;;;;25.16;83.39;100583.06;4895545;29;20040;-77
2022/06/03 07:12:51;;;;;;;13.68;7.65;;;;;;;25.32;80.72;100586.25;4911664;29;20087;-76
2022/06/03 07:15:25;;;;;;;13.45;7.70;;;;;;;25.47;79.83;100591.25;4910327;29;20040;-75
2022/06/03 07:20:55;;;;;;;11.48;7.40;;;;;;;25.49;79.18;100547.13;4950759;29;20058;-76
2022/06/03 07:23:47;;;;;;;11.90;7.60;;;;;;;25.92;80.61;100589.28;4953023;29;20031;-76
2022/06/03 07:26:45;;;;;;;12.00;7.38;;;;;;;25.97;80.83;100593.56;4877302;29;20041;-77
2022/06/03 07:29:17;;;;;;;11.45;6.32;;;;;;;26.14;77.21;100582.59;4861921;29;20518;-76
2022/06/03 07:32:04;;;;;;;9.32;6.28;;;;;;;26.36;75.83;100591.75;4912664;29;20135;-77
2022/06/03 07:34:42;;;;;;;13.43;6.18;;;;;;;26.43;76.73;100575.66;4933787;29;20111;-77
2022/06/03 07:37:18;;;;;;;9.43;6.15;;;;;;;26.45;75.41;100551.78;4923358;29;20048;-74
2022/06/03 07:39:43;;;;;;;9.50;6.00;;;;;;;26.55;74.33;100560.34;4914718;29;20111;-75
2022/06/03 07:42:13;;;;;;;9.40;6.72;;;;;;;26.63;77.20;100567.16;4914712;29;20611;-75
2022/06/03 07:45:20;;;;;;;16.40;7.43;;;;;;;26.71;72.50;100558.97;4913656;29;20040;-78
2022/06/03 07:47:46;;;;;;;11.65;5.70;;;;;;;26.87;69.97;100561.22;4887758;29;20508;-74
2022/06/03 07:50:17;;;;;;;8.02;5.40;;;;;;;27.05;69.96;100557.16;4887770;29;20029;-74
2022/06/03 07:53:08;;;;;;;7.95;5.70;;;;;;;26.95;70.73;100538.00;4884941;29;20048;-74
2022/06/03 07:55:35;;;;;;;10.20;5.07;;;;;;;27.17;69.42;100561.22;4885311;29;20049;-73
2022/06/03 07:58:13;;;;;;;10.20;5.53;;;;;;;27.32;70.31;100551.91;4885722;29;20033;-73
2022/06/03 08:00:40;;;;;;;10.75;6.97;;;;;;;27.54;69.34;100550.34;4887082;29;20072;-73
2022/06/03 08:03:18;;;;;;;16.88;6.57;;;;;;;27.63;70.37;100542.97;4903737;29;20127;-73
2022/06/03 08:05:47;;;;;;;13.45;5.22;;;;;;;27.84;65.31;100544.06;4925991;29;20084;-73
2022/06/03 08:11:07;;;;;;;6.57;4.55;;;;;;;28.07;63.38;100533.53;4922839;29;20046;-73
2022/06/03 08:13:41;;;;;;;8.20;4.07;;;;;;;28.32;60.61;100543.28;4922193;29;20032;-73
2022/06/03 08:16:38;;;;;;;10.60;4.32;;;;;;;28.41;58.61;100539.44;4922636;29;20032;-73
2022/06/03 08:19:26;;;;;;;10.23;4.30;;;;;;;28.46;57.25;100547.25;4921352;29;20058;-73
2022/06/03 08:21:55;;;;;;;7.90;4.60;;;;;;;28.58;59.02;100534.38;4913817;29;20040;-73
2022/06/03 08:24:30;;;;;;;9.25;4.50;;;;;;;28.70;55.92;100538.41;4948859;28;20058;-74
2022/06/03 08:27:00;;;;;;;15.52;4.60;;;;;;;28.55;59.38;100525.69;4992418;28;20046;-73
2022/06/03 08:29:36;;;;;;;7.53;4.32;;;;;;;28.83;57.57;100544.09;4991476;28;20026;-73
2022/06/03 08:32:07;;;;;;;8.98;3.92;;;;;;;28.94;55.32;100545.50;4991412;28;20061;-72
2022/06/03 08:34:38;;;;;;;7.93;3.92;;;;;;;29.01;54.23;100539.00;4980309;28;20026;-75
2022/06/03 08:37:06;;;;;;;8.65;4.10;;;;;;;28.96;54.81;100539.22;4988850;28;20034;-75
2022/06/03 08:39:33;;;;;;;8.45;3.78;;;;;;;28.98;53.65;100542.66;4985899;28;20030;-75
2022/06/03 08:42:10;;;;;;;9.70;4.10;;;;;;;29.13;55.96;100541.19;4990834;28;20101;-76
2022/06/03 08:44:41;;;;;;;10.88;4.15;;;;;;;29.18;54.90;100538.34;4989082;28;20031;-73
2022/06/03 08:47:20;;;;;;;7.70;4.03;;;;;;;29.39;55.63;100536.66;4991779;28;20032;-74
2022/06/03 08:50:32;;;;;;;11.48;4.35;;;;;;;29.28;55.06;100507.81;4991963;28;20476;-72
2022/06/03 08:53:00;;;;;;;10.95;4.32;;;;;;;29.57;54.69;100531.50;4942867;29;20042;-73
2022/06/03 08:55:54;;;;;;;9.60;4.22;;;;;;;29.45;53.04;100525.78;4948601;29;20086;-72
2022/06/03 08:58:46;;;;;;;6.18;4.15;;;;;;;29.70;53.42;100535.41;4942441;29;20023;-73
2022/06/03 09:01:29;;;;;;;7.65;3.70;;;;;;;29.72;51.87;100537.97;4947286;29;20457;-74
2022/06/03 09:04:00;;;;;;;8.50;4.20;;;;;;;29.84;51.74;100533.00;4942295;29;20105;-71
2022/06/03 09:06:45;;;;;;;8.30;4.00;;;;;;;29.85;49.57;100531.22;4941457;29;20035;-73
2022/06/03 09:09:32;;;;;;;8.45;4.25;;;;;;;29.97;53.27;100540.50;4942129;29;20043;-74
2022/06/03 09:12:09;;;;;;;6.05;3.78;;;;;;;30.03;50.46;100537.56;4855706;29;20121;-73
2022/06/03 09:14:35;;;;;;;12.60;4.63;;;;;;;30.21;52.50;100551.00;4855783;29;20046;-74
2022/06/03 09:17:25;;;;;;;6.65;3.70;;;;;;;30.29;50.41;100551.53;4856044;29;20045;-74
2022/06/03 09:19:54;;;;;;;12.13;4.28;;;;;;;30.42;49.11;100550.06;4809563;29;20050;-73
2022/06/03 09:22:26;;;;;;;7.35;3.45;;;;;;;30.51;47.76;100548.81;4813582;29;20042;-75
2022/06/03 09:24:56;;;;;;;8.95;3.78;;;;;;;30.47;48.84;100557.88;4819497;29;20094;-73
2022/06/03 09:27:22;;;;;;;7.43;3.80;;;;;;;30.61;49.67;100557.25;4817790;29;20494;-76
2022/06/03 09:29:52;;;;;;;7.03;3.58;;;;;;;30.41;48.76;100531.50;4831303;29;20045;-76
2022/06/03 09:32:20;;;;;;;9.43;4.28;;;;;;;30.40;48.73;100551.06;4835938;29;20057;-74
2022/06/03 09:34:51;;;;;;;9.20;3.60;;;;;;;30.21;51.50;100527.03;4837704;29;20041;-75
2022/06/03 09:37:23;;;;;;;10.73;3.90;;;;;;;30.51;50.46;100562.13;4837579;29;20030;-75
2022/06/03 09:39:51;;;;;;;13.07;4.18;;;;;;;30.33;49.18;100561.13;4837477;29;20056;-75
2022/06/03 09:42:19;;;;;;;12.43;3.80;;;;;;;30.47;49.95;100550.72;4837523;29;20595;-75
2022/06/03 09:44:48;;;;;;;7.80;3.80;;;;;;;30.66;48.27;100557.91;4837131;29;20430;-74
2022/06/03 09:47:18;;;;;;;7.47;3.90;;;;;;;30.76;47.96;100558.34;4845127;29;20038;-75
2022/06/03 09:49:47;;;;;;;7.53;4.38;;;;;;;30.94;49.08;100568.16;4867660;29;20078;-75
2022/06/03 09:52:20;;;;;;;10.40;5.30;;;;;;;31.07;47.67;100567.63;4900862;29;20110;-73
2022/06/03 09:54:47;;;;;;;10.63;4.45;;;;;;;31.21;50.59;100569.63;4904605;29;20116;-73
2022/06/03 09:57:33;;;;;;;8.30;4.05;;;;;;;30.83;48.01;100565.16;4963675;28;20074;-73
2022/06/03 10:00:16;;;;;;;7.45;3.85;;;;;;;30.75;46.34;100562.81;4978893;28;20041;-72
2022/06/03 10:02:42;;;;;;;7.07;3.75;;;;;;;30.65;47.75;100572.16;4978110;28;20034;-76
2022/06/03 10:05:11;;;;;;;9.25;4.18;;;;;;;30.42;47.87;100557.19;4982229;28;20022;-78
2022/06/03 10:07:37;;;;;;;6.68;3.80;;;;;;;30.31;48.44;100581.66;4981295;28;20154;-75
2022/06/03 10:13:10;;;;;;;9.48;4.20;;;;;;;29.98;52.31;100596.34;4980221;28;20049;-76
2022/06/03 10:15:40;;;;;;;8.45;4.47;;;;;;;29.97;51.34;100589.28;4986363;28;20539;-74
2022/06/03 10:18:25;;;;;;;7.78;3.97;;;;;;;29.88;51.16;100594.09;4987511;28;20492;-73
2022/06/03 10:20:54;;;;;;;9.40;4.65;;;;;;;29.67;52.41;100567.44;4972160;28;20672;-75
2022/06/03 10:23:23;;;;;;;9.52;4.68;;;;;;;29.54;52.94;100567.94;4987140;28;20075;-77
2022/06/03 10:25:52;;;;;;;11.60;4.53;;;;;;;29.76;54.70;100595.47;4988064;28;20067;-74
2022/06/03 10:28:19;;;;;;;14.25;4.65;;;;;;;29.73;53.49;100584.97;4984651;28;20055;-74
2022/06/03 10:30:46;;;;;;;6.93;4.35;;;;;;;29.78;50.73;100591.81;4986595;28;20049;-74
2022/06/03 10:33:19;;;;;;;11.68;4.63;;;;;;;29.82;50.52;100580.13;4973141;28;20034;-78
2022/06/03 10:35:46;;;;;;;7.53;4.28;;;;;;;29.96;51.02;100584.03;4985276;28;20070;-76
2022/06/03 10:38:18;;;;;;;10.57;4.47;;;;;;;29.95;52.61;100580.50;4986879;28;20041;-74
2022/06/03 10:40:52;;;;;;;10.70;4.00;;;;;;;29.98;52.43;100568.84;4987938;28;20122;-73
2022/06/03 10:43:30;;;;;;;15.75;4.32;;;;;;;30.25;51.24;100585.44;4983622;28;20121;-75
2022/06/03 10:46:10;;;;;;;12.05;4.70;;;;;;;30.16;51.25;100567.22;4987554;28;20082;-73
2022/06/03 10:48:36;;;;;;;9.68;3.95;;;;;;;30.16;51.17;100562.72;4975726;28;20031;-74
2022/06/03 11:01:06;;;;;;;12.82;4.28;;;;;;;30.24;50.17;100570.38;4982433;28;20031;-71
2022/06/03 11:02:30;;;;;;;13.10;4.40;;;;;;;30.49;55.42;100540.91;4991549;28;20180;-72
2022/06/03 11:05:08;;;;;;;11.02;4.10;;;;;;;30.99;53.58;100559.94;4994746;28;20114;-73
2022/06/03 11:07:35;;;;;;;12.23;4.30;;;;;;;31.32;50.82;100545.09;4994710;28;20069;-73
2022/06/03 11:10:06;;;;;;;13.38;4.25;;;;;;;31.71;50.39;100552.94;4994686;28;20042;-75
2022/06/03 11:12:32;;;;;;;12.32;4.88;;;;;;;31.97;45.09;100550.75;4994708;28;20030;-74
2022/06/03 11:14:58;;;;;;;14.95;4.22;;;;;;;32.23;46.32;100548.59;4994984;28;20038;-74
2022/06/03 11:17:40;;;;;;;12.68;3.78;;;;;;;32.56;49.33;100550.38;4994798;28;20030;-74
2022/06/03 11:20:30;;;;;;;8.55;4.05;;;;;;;32.66;44.88;100554.31;4995387;28;20038;-72
2022/06/03 11:22:56;;;;;;;8.80;4.20;;;;;;;32.88;42.80;100539.78;4994381;28;20042;-74
2022/06/03 11:25:30;;;;;;;13.60;4.30;;;;;;;33.07;43.92;100539.59;4994846;28;20393;-74
2022/06/03 11:28:01;;;;;;;8.88;4.25;;;;;;;33.18;44.89;100531.81;4992351;28;20038;-75
2022/06/03 11:30:43;;;;;;;16.63;4.38;;;;;;;33.11;43.80;100549.19;4993654;28;20057;-76
2022/06/03 11:33:36;;;;;;;11.88;4.50;;;;;;;32.81;44.00;100546.41;4987704;28;20043;-74
2022/06/03 11:36:09;;;;;;;9.38;4.20;;;;;;;32.66;43.96;100545.41;4964257;28;20555;-75
2022/06/03 11:38:46;;;;;;;12.40;4.80;;;;;;;32.71;46.89;100543.34;4961756;28;20158;-75
2022/06/03 11:41:26;;;;;;;15.23;4.60;;;;;;;32.36;45.46;100514.06;4963656;28;20041;-75
2022/06/03 11:44:01;;;;;;;9.80;4.75;;;;;;;32.37;46.12;100546.03;4963175;28;20065;-75
2022/06/03 11:46:37;;;;;;;14.20;4.18;;;;;;;32.08;45.59;100540.38;4963056;28;20061;-75
2022/06/03 11:49:07;;;;;;;15.43;4.53;;;;;;;31.98;47.35;100536.47;4964119;28;20034;-75
2022/06/03 11:51:33;;;;;;;13.32;4.57;;;;;;;31.96;50.48;100537.50;4961230;28;20039;-75
2022/06/03 11:54:00;;;;;;;10.25;4.15;;;;;;;31.86;47.56;100537.09;4946215;28;20046;-75
2022/06/03 11:56:30;;;;;;;10.13;4.47;;;;;;;31.81;48.22;100544.50;4965417;28;20030;-75
2022/06/03 11:59:05;;;;;;;16.02;4.82;;;;;;;31.52;49.13;100554.81;4963858;28;20130;-75
2022/06/03 12:01:49;;;;;;;15.02;4.80;;;;;;;31.10;50.83;100536.31;4961104;28;20027;-75
2022/06/03 12:04:14;;;;;;;8.45;4.60;;;;;;;30.97;50.84;100548.50;4960427;28;20039;-72
2022/06/03 12:06:51;;;;;;;9.60;4.57;;;;;;;30.85;52.35;100549.91;4956187;28;20429;-74
2022/06/03 12:09:40;;;;;;;13.57;4.63;;;;;;;30.94;51.67;100554.84;4961770;28;20031;-74
2022/06/03 12:14:58;;;;;;;7.45;4.50;;;;;;;30.94;51.81;100546.84;4993516;28;20038;-74
2022/06/03 12:17:30;;;;;;;10.88;4.82;;;;;;;30.96;51.94;100549.44;4993661;28;20089;-73
2022/06/03 12:19:56;;;;;;;11.27;4.75;;;;;;;30.96;51.54;100570.75;4993440;28;20370;-74
2022/06/03 12:22:31;;;;;;;11.25;4.25;;;;;;;31.03;52.45;100566.88;4986380;28;20038;-75
2022/06/03 12:25:01;;;;;;;11.32;4.22;;;;;;;31.22;53.03;100560.69;4984343;28;20030;-74
2022/06/03 12:27:40;;;;;;;13.32;5.00;;;;;;;31.39;52.25;100551.84;4982840;28;20019;-74
2022/06/03 12:30:14;;;;;;;8.85;4.35;;;;;;;31.27;51.14;100513.31;4983098;28;20085;-75
2022/06/03 12:32:54;;;;;;;9.18;4.43;;;;;;;31.29;51.11;100528.31;4984007;28;20026;-74
2022/06/03 12:35:42;;;;;;;9.48;3.90;;;;;;;31.44;50.22;100549.81;4989268;28;20104;-75
2022/06/03 12:38:19;;;;;;;13.15;4.20;;;;;;;31.57;50.77;100552.75;4983153;28;20034;-74
2022/06/03 12:40:50;;;;;;;8.52;3.97;;;;;;;31.66;48.26;100563.00;4981660;28;20038;-75
2022/06/03 12:43:28;;;;;;;11.13;4.03;;;;;;;31.88;47.85;100548.59;4973658;28;20472;-75
2022/06/03 12:46:08;;;;;;;8.88;4.28;;;;;;;32.12;47.13;100543.75;4973468;28;20034;-75